sensor_id;sensor_type;location;lat;lon;timestamp;P1;durP1;ratioP1;P2;durP2;ratioP2
69047;SDS011;56119;50.118;8.642;2023-07-02T00:01:47;6.45;;;3.15;;
69047;SDS011;56119;50.118;8.642;2023-07-02T00:04:13;4.53;;;2.42;;
69047;SDS011;56119;50.118;8.642;2023-07-02T00:06:44;4.60;;;3.15;;
69047;SDS011;56119;50.118;8.642;2023-07-02T00:09:10;3.45;;;2.80;;
69047;SDS011;56119;50.118;8.642;2023-07-02T00:11:40;4.32;;;3.05;;
69047;SDS011;56119;50.118;8.642;2023-07-02T00:14:06;5.28;;;3.50;;
69047;SDS011;56119;50.118;8.642;2023-07-02T00:16:32;3.75;;;3.05;;
69047;SDS011;56119;50.118;8.642;2023-07-02T00:18:58;5.07;;;3.10;;
69047;SDS011;56119;50.118;8.642;2023-07-02T00:21:25;3.40;;;2.70;;
69047;SDS011;56119;50.118;8.642;2023-07-02T00:23:53;3.97;;;3.22;;
69047;SDS011;56119;50.118;8.642;2023-07-02T00:26:19;5.20;;;2.83;;
69047;SDS011;56119;50.118;8.642;2023-07-02T00:28:45;3.35;;;2.88;;
69047;SDS011;56119;50.118;8.642;2023-07-02T00:31:11;6.20;;;2.72;;
69047;SDS011;56119;50.118;8.642;2023-07-02T00:33:37;4.63;;;3.33;;
69047;SDS011;56119;50.118;8.642;2023-07-02T00:36:03;6.63;;;2.97;;
69047;SDS011;56119;50.118;8.642;2023-07-02T00:38:29;5.38;;;3.20;;
69047;SDS011;56119;50.118;8.642;2023-07-02T00:40:55;3.58;;;2.60;;
69047;SDS011;56119;50.118;8.642;2023-07-02T00:43:21;5.35;;;3.13;;
69047;SDS011;56119;50.118;8.642;2023-07-02T00:45:47;4.25;;;3.20;;
69047;SDS011;56119;50.118;8.642;2023-07-02T00:48:13;5.60;;;3.00;;
69047;SDS011;56119;50.118;8.642;2023-07-02T00:50:39;5.82;;;3.08;;
69047;SDS011;56119;50.118;8.642;2023-07-02T00:53:05;6.85;;;3.50;;
69047;SDS011;56119;50.118;8.642;2023-07-02T00:55:31;5.82;;;3.40;;
69047;SDS011;56119;50.118;8.642;2023-07-02T00:57:57;6.45;;;2.90;;
69047;SDS011;56119;50.118;8.642;2023-07-02T01:00:23;6.65;;;3.42;;
69047;SDS011;56119;50.118;8.642;2023-07-02T01:02:55;4.95;;;2.70;;
69047;SDS011;56119;50.118;8.642;2023-07-02T01:05:27;5.68;;;2.78;;
69047;SDS011;56119;50.118;8.642;2023-07-02T01:08:00;5.38;;;2.75;;
69047;SDS011;56119;50.118;8.642;2023-07-02T01:10:26;7.07;;;3.20;;
69047;SDS011;56119;50.118;8.642;2023-07-02T01:12:52;5.53;;;2.63;;
69047;SDS011;56119;50.118;8.642;2023-07-02T01:15:18;4.78;;;3.10;;
69047;SDS011;56119;50.118;8.642;2023-07-02T01:17:44;4.60;;;2.78;;
69047;SDS011;56119;50.118;8.642;2023-07-02T01:20:12;5.22;;;2.78;;
69047;SDS011;56119;50.118;8.642;2023-07-02T01:22:38;4.20;;;2.55;;
69047;SDS011;56119;50.118;8.642;2023-07-02T01:25:04;6.30;;;3.10;;
69047;SDS011;56119;50.118;8.642;2023-07-02T01:27:30;6.05;;;2.63;;
69047;SDS011;56119;50.118;8.642;2023-07-02T01:29:57;6.50;;;3.10;;
69047;SDS011;56119;50.118;8.642;2023-07-02T01:32:23;5.55;;;2.63;;
69047;SDS011;56119;50.118;8.642;2023-07-02T01:34:49;7.60;;;2.92;;
69047;SDS011;56119;50.118;8.642;2023-07-02T01:37:18;7.82;;;2.90;;
69047;SDS011;56119;50.118;8.642;2023-07-02T01:39:44;7.05;;;2.60;;
69047;SDS011;56119;50.118;8.642;2023-07-02T01:42:11;4.35;;;3.13;;
69047;SDS011;56119;50.118;8.642;2023-07-02T01:44:37;5.25;;;2.78;;
69047;SDS011;56119;50.118;8.642;2023-07-02T01:47:04;4.80;;;2.83;;
69047;SDS011;56119;50.118;8.642;2023-07-02T01:49:30;7.25;;;3.08;;
69047;SDS011;56119;50.118;8.642;2023-07-02T01:51:56;5.13;;;2.90;;
69047;SDS011;56119;50.118;8.642;2023-07-02T01:54:23;3.83;;;2.10;;
69047;SDS011;56119;50.118;8.642;2023-07-02T01:56:51;9.40;;;2.63;;
69047;SDS011;56119;50.118;8.642;2023-07-02T01:59:17;7.28;;;2.97;;
69047;SDS011;56119;50.118;8.642;2023-07-02T02:01:43;6.13;;;2.78;;
69047;SDS011;56119;50.118;8.642;2023-07-02T02:04:10;6.30;;;2.72;;
69047;SDS011;56119;50.118;8.642;2023-07-02T02:06:36;3.58;;;2.50;;
69047;SDS011;56119;50.118;8.642;2023-07-02T02:09:02;5.32;;;2.90;;
69047;SDS011;56119;50.118;8.642;2023-07-02T02:11:29;4.28;;;2.78;;
69047;SDS011;56119;50.118;8.642;2023-07-02T02:13:55;5.60;;;2.50;;
69047;SDS011;56119;50.118;8.642;2023-07-02T02:16:21;5.00;;;2.90;;
69047;SDS011;56119;50.118;8.642;2023-07-02T02:18:47;4.40;;;2.50;;
69047;SDS011;56119;50.118;8.642;2023-07-02T02:21:16;5.13;;;2.90;;
69047;SDS011;56119;50.118;8.642;2023-07-02T02:23:42;6.50;;;2.88;;
69047;SDS011;56119;50.118;8.642;2023-07-02T02:26:08;6.47;;;3.20;;
69047;SDS011;56119;50.118;8.642;2023-07-02T02:28:34;4.82;;;2.60;;
69047;SDS011;56119;50.118;8.642;2023-07-02T02:31:00;5.47;;;2.58;;
69047;SDS011;56119;50.118;8.642;2023-07-02T02:33:27;4.43;;;2.65;;
69047;SDS011;56119;50.118;8.642;2023-07-02T02:35:53;3.30;;;2.30;;
69047;SDS011;56119;50.118;8.642;2023-07-02T02:38:19;4.18;;;2.60;;
69047;SDS011;56119;50.118;8.642;2023-07-02T02:40:45;3.80;;;2.58;;
69047;SDS011;56119;50.118;8.642;2023-07-02T02:43:11;4.57;;;2.50;;
69047;SDS011;56119;50.118;8.642;2023-07-02T02:45:38;4.38;;;2.58;;
69047;SDS011;56119;50.118;8.642;2023-07-02T02:48:04;5.35;;;2.55;;
69047;SDS011;56119;50.118;8.642;2023-07-02T02:50:30;5.68;;;2.95;;
69047;SDS011;56119;50.118;8.642;2023-07-02T02:52:56;5.28;;;2.72;;
69047;SDS011;56119;50.118;8.642;2023-07-02T02:55:22;6.13;;;2.60;;
69047;SDS011;56119;50.118;8.642;2023-07-02T02:57:48;6.55;;;3.10;;
69047;SDS011;56119;50.118;8.642;2023-07-02T03:00:14;5.35;;;2.88;;
69047;SDS011;56119;50.118;8.642;2023-07-02T03:02:41;5.65;;;3.10;;
69047;SDS011;56119;50.118;8.642;2023-07-02T03:05:08;7.78;;;3.50;;
69047;SDS011;56119;50.118;8.642;2023-07-02T03:07:34;4.00;;;2.72;;
69047;SDS011;56119;50.118;8.642;2023-07-02T03:10:00;6.47;;;2.72;;
69047;SDS011;56119;50.118;8.642;2023-07-02T03:12:26;7.45;;;3.08;;
69047;SDS011;56119;50.118;8.642;2023-07-02T03:14:52;6.30;;;3.30;;
69047;SDS011;56119;50.118;8.642;2023-07-02T03:17:20;5.88;;;3.17;;
69047;SDS011;56119;50.118;8.642;2023-07-02T03:19:46;4.47;;;3.20;;
69047;SDS011;56119;50.118;8.642;2023-07-02T03:22:13;4.82;;;3.10;;
69047;SDS011;56119;50.118;8.642;2023-07-02T03:24:39;4.78;;;3.30;;
69047;SDS011;56119;50.118;8.642;2023-07-02T03:27:05;8.55;;;4.38;;
69047;SDS011;56119;50.118;8.642;2023-07-02T03:29:31;8.45;;;4.10;;
69047;SDS011;56119;50.118;8.642;2023-07-02T03:31:57;7.75;;;3.83;;
69047;SDS011;56119;50.118;8.642;2023-07-02T03:34:23;7.57;;;4.03;;
69047;SDS011;56119;50.118;8.642;2023-07-02T03:36:49;7.45;;;4.10;;
69047;SDS011;56119;50.118;8.642;2023-07-02T03:39:15;7.97;;;4.03;;
69047;SDS011;56119;50.118;8.642;2023-07-02T03:41:42;12.88;;;5.20;;
69047;SDS011;56119;50.118;8.642;2023-07-02T03:44:08;12.82;;;4.85;;
69047;SDS011;56119;50.118;8.642;2023-07-02T03:46:34;9.25;;;4.65;;
69047;SDS011;56119;50.118;8.642;2023-07-02T03:49:00;9.88;;;4.57;;
69047;SDS011;56119;50.118;8.642;2023-07-02T03:51:27;9.98;;;5.00;;
69047;SDS011;56119;50.118;8.642;2023-07-02T03:53:53;8.90;;;4.85;;
69047;SDS011;56119;50.118;8.642;2023-07-02T03:56:19;12.10;;;5.05;;
69047;SDS011;56119;50.118;8.642;2023-07-02T03:58:45;8.23;;;4.63;;
69047;SDS011;56119;50.118;8.642;2023-07-02T04:01:12;10.50;;;4.50;;
69047;SDS011;56119;50.118;8.642;2023-07-02T04:03:38;7.47;;;4.70;;
69047;SDS011;56119;50.118;8.642;2023-07-02T04:06:04;8.35;;;5.10;;
69047;SDS011;56119;50.118;8.642;2023-07-02T04:08:33;5.72;;;3.92;;
69047;SDS011;56119;50.118;8.642;2023-07-02T04:10:59;9.55;;;4.50;;
69047;SDS011;56119;50.118;8.642;2023-07-02T04:13:25;7.63;;;3.88;;
69047;SDS011;56119;50.118;8.642;2023-07-02T04:15:51;8.75;;;3.88;;
69047;SDS011;56119;50.118;8.642;2023-07-02T04:18:17;8.60;;;4.30;;
69047;SDS011;56119;50.118;8.642;2023-07-02T04:20:43;6.85;;;4.45;;
69047;SDS011;56119;50.118;8.642;2023-07-02T04:23:09;10.70;;;4.07;;
69047;SDS011;56119;50.118;8.642;2023-07-02T04:25:35;7.13;;;4.47;;
69047;SDS011;56119;50.118;8.642;2023-07-02T04:28:01;6.93;;;4.45;;
69047;SDS011;56119;50.118;8.642;2023-07-02T04:30:27;6.70;;;4.18;;
69047;SDS011;56119;50.118;8.642;2023-07-02T04:32:53;7.18;;;4.57;;
69047;SDS011;56119;50.118;8.642;2023-07-02T04:35:18;7.53;;;4.32;;
69047;SDS011;56119;50.118;8.642;2023-07-02T04:37:44;9.18;;;4.30;;
69047;SDS011;56119;50.118;8.642;2023-07-02T04:40:10;7.93;;;4.80;;
69047;SDS011;56119;50.118;8.642;2023-07-02T04:42:37;8.65;;;5.00;;
69047;SDS011;56119;50.118;8.642;2023-07-02T04:45:06;10.85;;;4.72;;
69047;SDS011;56119;50.118;8.642;2023-07-02T04:47:33;10.13;;;4.60;;
69047;SDS011;56119;50.118;8.642;2023-07-02T04:49:59;8.32;;;5.13;;
69047;SDS011;56119;50.118;8.642;2023-07-02T04:52:26;7.97;;;4.97;;
69047;SDS011;56119;50.118;8.642;2023-07-02T04:54:52;10.60;;;5.55;;
69047;SDS011;56119;50.118;8.642;2023-07-02T04:57:18;11.35;;;5.90;;
69047;SDS011;56119;50.118;8.642;2023-07-02T04:59:44;9.23;;;4.93;;
69047;SDS011;56119;50.118;8.642;2023-07-02T05:02:10;10.90;;;5.63;;
69047;SDS011;56119;50.118;8.642;2023-07-02T05:04:36;9.93;;;5.43;;
69047;SDS011;56119;50.118;8.642;2023-07-02T05:07:03;11.35;;;5.35;;
69047;SDS011;56119;50.118;8.642;2023-07-02T05:09:29;11.43;;;5.32;;
69047;SDS011;56119;50.118;8.642;2023-07-02T05:11:55;12.70;;;5.88;;
69047;SDS011;56119;50.118;8.642;2023-07-02T05:14:21;12.27;;;6.30;;
69047;SDS011;56119;50.118;8.642;2023-07-02T05:16:47;11.95;;;6.85;;
69047;SDS011;56119;50.118;8.642;2023-07-02T05:19:14;12.40;;;6.53;;
69047;SDS011;56119;50.118;8.642;2023-07-02T05:21:40;12.85;;;6.68;;
69047;SDS011;56119;50.118;8.642;2023-07-02T05:24:06;12.35;;;6.22;;
69047;SDS011;56119;50.118;8.642;2023-07-02T05:26:32;9.30;;;6.05;;
69047;SDS011;56119;50.118;8.642;2023-07-02T05:28:58;10.88;;;5.55;;
69047;SDS011;56119;50.118;8.642;2023-07-02T05:31:24;11.25;;;6.25;;
69047;SDS011;56119;50.118;8.642;2023-07-02T05:33:50;11.52;;;6.40;;
69047;SDS011;56119;50.118;8.642;2023-07-02T05:36:16;13.00;;;6.47;;
69047;SDS011;56119;50.118;8.642;2023-07-02T05:38:42;12.90;;;6.88;;
69047;SDS011;56119;50.118;8.642;2023-07-02T05:41:08;11.50;;;6.22;;
69047;SDS011;56119;50.118;8.642;2023-07-02T05:43:34;13.90;;;7.03;;
69047;SDS011;56119;50.118;8.642;2023-07-02T05:46:00;11.50;;;6.07;;
69047;SDS011;56119;50.118;8.642;2023-07-02T05:48:26;12.30;;;6.47;;
69047;SDS011;56119;50.118;8.642;2023-07-02T05:50:53;12.48;;;7.03;;
69047;SDS011;56119;50.118;8.642;2023-07-02T05:53:19;11.95;;;7.00;;
69047;SDS011;56119;50.118;8.642;2023-07-02T05:55:45;14.82;;;6.95;;
69047;SDS011;56119;50.118;8.642;2023-07-02T05:58:12;13.80;;;6.20;;
69047;SDS011;56119;50.118;8.642;2023-07-02T06:00:38;13.63;;;6.95;;
69047;SDS011;56119;50.118;8.642;2023-07-02T06:03:06;10.32;;;6.70;;
69047;SDS011;56119;50.118;8.642;2023-07-02T06:05:32;17.25;;;7.55;;
69047;SDS011;56119;50.118;8.642;2023-07-02T06:07:58;11.85;;;6.97;;
69047;SDS011;56119;50.118;8.642;2023-07-02T06:10:24;11.15;;;6.40;;
69047;SDS011;56119;50.118;8.642;2023-07-02T06:12:50;17.77;;;8.38;;
69047;SDS011;56119;50.118;8.642;2023-07-02T06:15:17;13.43;;;7.18;;
69047;SDS011;56119;50.118;8.642;2023-07-02T06:17:43;10.48;;;6.43;;
69047;SDS011;56119;50.118;8.642;2023-07-02T06:20:09;15.38;;;7.18;;
69047;SDS011;56119;50.118;8.642;2023-07-02T06:22:35;14.95;;;7.60;;
69047;SDS011;56119;50.118;8.642;2023-07-02T06:25:01;14.07;;;6.80;;
69047;SDS011;56119;50.118;8.642;2023-07-02T06:27:27;11.80;;;7.22;;
69047;SDS011;56119;50.118;8.642;2023-07-02T06:29:53;10.73;;;6.97;;
69047;SDS011;56119;50.118;8.642;2023-07-02T06:32:19;13.05;;;7.30;;
69047;SDS011;56119;50.118;8.642;2023-07-02T06:34:44;16.00;;;7.93;;
69047;SDS011;56119;50.118;8.642;2023-07-02T06:37:11;16.63;;;8.98;;
69047;SDS011;56119;50.118;8.642;2023-07-02T06:39:37;16.52;;;7.68;;
69047;SDS011;56119;50.118;8.642;2023-07-02T06:42:03;12.18;;;7.57;;
69047;SDS011;56119;50.118;8.642;2023-07-02T06:44:29;17.05;;;8.13;;
69047;SDS011;56119;50.118;8.642;2023-07-02T06:46:55;13.63;;;7.63;;
69047;SDS011;56119;50.118;8.642;2023-07-02T06:49:21;16.25;;;9.00;;
69047;SDS011;56119;50.118;8.642;2023-07-02T06:51:47;15.70;;;8.77;;
69047;SDS011;56119;50.118;8.642;2023-07-02T06:54:13;15.38;;;8.27;;
69047;SDS011;56119;50.118;8.642;2023-07-02T06:56:39;16.27;;;8.23;;
69047;SDS011;56119;50.118;8.642;2023-07-02T06:59:05;16.42;;;7.75;;
69047;SDS011;56119;50.118;8.642;2023-07-02T07:01:31;13.15;;;7.70;;
69047;SDS011;56119;50.118;8.642;2023-07-02T07:03:57;14.90;;;8.38;;
69047;SDS011;56119;50.118;8.642;2023-07-02T07:06:24;13.93;;;8.32;;
69047;SDS011;56119;50.118;8.642;2023-07-02T07:08:51;12.65;;;8.25;;
69047;SDS011;56119;50.118;8.642;2023-07-02T07:11:16;14.27;;;8.40;;
69047;SDS011;56119;50.118;8.642;2023-07-02T07:13:42;13.25;;;8.35;;
69047;SDS011;56119;50.118;8.642;2023-07-02T07:16:09;12.85;;;7.78;;
69047;SDS011;56119;50.118;8.642;2023-07-02T07:18:35;17.17;;;9.93;;
69047;SDS011;56119;50.118;8.642;2023-07-02T07:21:01;17.90;;;9.55;;
69047;SDS011;56119;50.118;8.642;2023-07-02T07:23:27;16.58;;;9.68;;
69047;SDS011;56119;50.118;8.642;2023-07-02T07:25:53;17.33;;;10.30;;
69047;SDS011;56119;50.118;8.642;2023-07-02T07:28:19;19.42;;;10.63;;
69047;SDS011;56119;50.118;8.642;2023-07-02T07:30:44;15.48;;;9.20;;
69047;SDS011;56119;50.118;8.642;2023-07-02T07:33:10;17.10;;;10.68;;
69047;SDS011;56119;50.118;8.642;2023-07-02T07:35:37;19.30;;;11.93;;
69047;SDS011;56119;50.118;8.642;2023-07-02T07:38:03;17.90;;;10.02;;
69047;SDS011;56119;50.118;8.642;2023-07-02T07:40:29;17.60;;;9.65;;
69047;SDS011;56119;50.118;8.642;2023-07-02T07:42:55;18.15;;;10.52;;
69047;SDS011;56119;50.118;8.642;2023-07-02T07:45:20;17.10;;;10.15;;
69047;SDS011;56119;50.118;8.642;2023-07-02T07:47:47;18.33;;;11.32;;
69047;SDS011;56119;50.118;8.642;2023-07-02T07:50:13;16.90;;;11.05;;
69047;SDS011;56119;50.118;8.642;2023-07-02T07:52:39;19.83;;;10.93;;
69047;SDS011;56119;50.118;8.642;2023-07-02T07:55:05;23.27;;;12.63;;
69047;SDS011;56119;50.118;8.642;2023-07-02T07:57:31;20.50;;;11.75;;
69047;SDS011;56119;50.118;8.642;2023-07-02T07:59:57;22.50;;;10.73;;
69047;SDS011;56119;50.118;8.642;2023-07-02T08:02:23;17.13;;;10.25;;
69047;SDS011;56119;50.118;8.642;2023-07-02T08:04:49;19.05;;;10.88;;
69047;SDS011;56119;50.118;8.642;2023-07-02T08:07:15;15.48;;;10.27;;
69047;SDS011;56119;50.118;8.642;2023-07-02T08:09:41;18.90;;;10.90;;
69047;SDS011;56119;50.118;8.642;2023-07-02T08:12:07;17.85;;;11.00;;
69047;SDS011;56119;50.118;8.642;2023-07-02T08:14:33;18.23;;;11.15;;
69047;SDS011;56119;50.118;8.642;2023-07-02T08:17:03;19.20;;;10.65;;
69047;SDS011;56119;50.118;8.642;2023-07-02T08:19:29;20.15;;;9.80;;
69047;SDS011;56119;50.118;8.642;2023-07-02T08:21:55;21.15;;;11.10;;
69047;SDS011;56119;50.118;8.642;2023-07-02T08:24:21;17.73;;;11.00;;
69047;SDS011;56119;50.118;8.642;2023-07-02T08:26:47;16.42;;;10.45;;
69047;SDS011;56119;50.118;8.642;2023-07-02T08:29:14;18.17;;;11.15;;
69047;SDS011;56119;50.118;8.642;2023-07-02T08:31:40;18.92;;;10.88;;
69047;SDS011;56119;50.118;8.642;2023-07-02T08:34:08;16.05;;;9.15;;
69047;SDS011;56119;50.118;8.642;2023-07-02T08:36:34;16.83;;;11.40;;
69047;SDS011;56119;50.118;8.642;2023-07-02T08:39:00;20.48;;;9.60;;
69047;SDS011;56119;50.118;8.642;2023-07-02T08:41:26;19.75;;;10.48;;
69047;SDS011;56119;50.118;8.642;2023-07-02T08:43:54;18.45;;;10.30;;
69047;SDS011;56119;50.118;8.642;2023-07-02T08:46:20;14.65;;;9.63;;
69047;SDS011;56119;50.118;8.642;2023-07-02T08:48:47;17.48;;;10.30;;
69047;SDS011;56119;50.118;8.642;2023-07-02T08:51:13;17.40;;;10.38;;
69047;SDS011;56119;50.118;8.642;2023-07-02T08:53:39;18.42;;;9.95;;
69047;SDS011;56119;50.118;8.642;2023-07-02T08:56:05;13.95;;;9.07;;
69047;SDS011;56119;50.118;8.642;2023-07-02T08:58:31;17.23;;;10.93;;
69047;SDS011;56119;50.118;8.642;2023-07-02T09:01:03;18.00;;;11.68;;
69047;SDS011;56119;50.118;8.642;2023-07-02T09:03:30;19.80;;;9.27;;
69047;SDS011;56119;50.118;8.642;2023-07-02T09:05:55;14.98;;;9.18;;
69047;SDS011;56119;50.118;8.642;2023-07-02T09:08:28;16.02;;;9.63;;
69047;SDS011;56119;50.118;8.642;2023-07-02T09:10:54;15.00;;;9.65;;
69047;SDS011;56119;50.118;8.642;2023-07-02T09:13:30;16.30;;;9.63;;
69047;SDS011;56119;50.118;8.642;2023-07-02T09:15:56;14.88;;;9.27;;
69047;SDS011;56119;50.118;8.642;2023-07-02T09:18:22;18.95;;;9.88;;
69047;SDS011;56119;50.118;8.642;2023-07-02T09:20:50;16.67;;;10.77;;
69047;SDS011;56119;50.118;8.642;2023-07-02T09:23:16;17.08;;;9.52;;
69047;SDS011;56119;50.118;8.642;2023-07-02T09:25:42;16.10;;;9.55;;
69047;SDS011;56119;50.118;8.642;2023-07-02T09:28:18;16.33;;;10.38;;
69047;SDS011;56119;50.118;8.642;2023-07-02T09:30:48;15.15;;;9.18;;
69047;SDS011;56119;50.118;8.642;2023-07-02T09:33:15;17.17;;;10.80;;
69047;SDS011;56119;50.118;8.642;2023-07-02T09:35:42;17.80;;;10.93;;
69047;SDS011;56119;50.118;8.642;2023-07-02T09:38:09;16.10;;;10.45;;
69047;SDS011;56119;50.118;8.642;2023-07-02T09:40:35;15.35;;;9.05;;
69047;SDS011;56119;50.118;8.642;2023-07-02T09:43:03;14.60;;;9.40;;
69047;SDS011;56119;50.118;8.642;2023-07-02T09:45:30;17.20;;;9.55;;
69047;SDS011;56119;50.118;8.642;2023-07-02T09:47:56;14.77;;;8.38;;
69047;SDS011;56119;50.118;8.642;2023-07-02T09:50:22;14.32;;;8.93;;
69047;SDS011;56119;50.118;8.642;2023-07-02T09:52:49;15.15;;;9.73;;
69047;SDS011;56119;50.118;8.642;2023-07-02T09:55:16;11.75;;;8.27;;
69047;SDS011;56119;50.118;8.642;2023-07-02T09:57:45;14.15;;;8.10;;
69047;SDS011;56119;50.118;8.642;2023-07-02T10:00:11;15.23;;;8.80;;
69047;SDS011;56119;50.118;8.642;2023-07-02T10:02:37;15.52;;;9.38;;
69047;SDS011;56119;50.118;8.642;2023-07-02T10:05:23;17.90;;;9.57;;
69047;SDS011;56119;50.118;8.642;2023-07-02T10:14:16;13.07;;;8.65;;
69047;SDS011;56119;50.118;8.642;2023-07-02T10:38:26;13.75;;;8.90;;
69047;SDS011;56119;50.118;8.642;2023-07-02T11:11:08;14.60;;;8.93;;
69047;SDS011;56119;50.118;8.642;2023-07-02T11:13:34;15.73;;;10.25;;
69047;SDS011;56119;50.118;8.642;2023-07-02T11:16:19;14.07;;;9.98;;
69047;SDS011;56119;50.118;8.642;2023-07-02T11:18:45;18.65;;;10.02;;
69047;SDS011;56119;50.118;8.642;2023-07-02T11:21:11;17.23;;;9.32;;
69047;SDS011;56119;50.118;8.642;2023-07-02T11:23:37;14.65;;;9.60;;
69047;SDS011;56119;50.118;8.642;2023-07-02T11:26:03;18.25;;;9.55;;
69047;SDS011;56119;50.118;8.642;2023-07-02T11:28:30;15.75;;;9.70;;
69047;SDS011;56119;50.118;8.642;2023-07-02T11:30:57;16.73;;;10.90;;
69047;SDS011;56119;50.118;8.642;2023-07-02T11:33:35;14.80;;;8.75;;
69047;SDS011;56119;50.118;8.642;2023-07-02T11:54:13;20.15;;;10.98;;
69047;SDS011;56119;50.118;8.642;2023-07-02T11:56:39;16.05;;;9.75;;
69047;SDS011;56119;50.118;8.642;2023-07-02T11:59:07;17.70;;;9.60;;
69047;SDS011;56119;50.118;8.642;2023-07-02T12:01:33;13.85;;;9.13;;
69047;SDS011;56119;50.118;8.642;2023-07-02T12:03:59;16.63;;;9.85;;
69047;SDS011;56119;50.118;8.642;2023-07-02T12:06:25;17.58;;;10.80;;
69047;SDS011;56119;50.118;8.642;2023-07-02T12:14:51;15.80;;;10.95;;
69047;SDS011;56119;50.118;8.642;2023-07-02T12:35:39;18.25;;;10.18;;
69047;SDS011;56119;50.118;8.642;2023-07-02T12:38:05;15.27;;;9.43;;
69047;SDS011;56119;50.118;8.642;2023-07-02T12:40:33;14.25;;;9.32;;
69047;SDS011;56119;50.118;8.642;2023-07-02T12:42:59;15.45;;;8.52;;
69047;SDS011;56119;50.118;8.642;2023-07-02T12:45:25;15.40;;;9.18;;
69047;SDS011;56119;50.118;8.642;2023-07-02T12:47:51;15.05;;;9.73;;
69047;SDS011;56119;50.118;8.642;2023-07-02T12:50:18;14.25;;;9.40;;
69047;SDS011;56119;50.118;8.642;2023-07-02T12:52:44;17.35;;;10.00;;
69047;SDS011;56119;50.118;8.642;2023-07-02T12:55:10;16.05;;;10.25;;
69047;SDS011;56119;50.118;8.642;2023-07-02T12:57:36;15.55;;;9.23;;
69047;SDS011;56119;50.118;8.642;2023-07-02T13:00:02;14.35;;;9.27;;
69047;SDS011;56119;50.118;8.642;2023-07-02T13:02:31;17.58;;;9.82;;
69047;SDS011;56119;50.118;8.642;2023-07-02T13:04:57;14.80;;;9.75;;
69047;SDS011;56119;50.118;8.642;2023-07-02T13:07:23;15.90;;;9.82;;
69047;SDS011;56119;50.118;8.642;2023-07-02T13:09:50;14.68;;;9.77;;
69047;SDS011;56119;50.118;8.642;2023-07-02T13:12:16;13.68;;;10.27;;
69047;SDS011;56119;50.118;8.642;2023-07-02T13:14:43;17.02;;;10.45;;
69047;SDS011;56119;50.118;8.642;2023-07-02T13:17:09;15.88;;;10.88;;
69047;SDS011;56119;50.118;8.642;2023-07-02T13:19:35;17.83;;;11.45;;
69047;SDS011;56119;50.118;8.642;2023-07-02T13:22:01;15.98;;;10.20;;
69047;SDS011;56119;50.118;8.642;2023-07-02T13:24:28;18.42;;;12.13;;
69047;SDS011;56119;50.118;8.642;2023-07-02T13:26:59;16.42;;;9.82;;
69047;SDS011;56119;50.118;8.642;2023-07-02T13:29:25;19.10;;;10.82;;
69047;SDS011;56119;50.118;8.642;2023-07-02T13:31:51;16.23;;;10.43;;
69047;SDS011;56119;50.118;8.642;2023-07-02T13:34:16;13.48;;;9.40;;
69047;SDS011;56119;50.118;8.642;2023-07-02T13:36:42;15.07;;;9.43;;
69047;SDS011;56119;50.118;8.642;2023-07-02T13:39:08;17.42;;;11.27;;
69047;SDS011;56119;50.118;8.642;2023-07-02T13:41:34;17.00;;;10.25;;
69047;SDS011;56119;50.118;8.642;2023-07-02T13:44:00;18.63;;;11.55;;
69047;SDS011;56119;50.118;8.642;2023-07-02T13:46:26;16.85;;;11.02;;
69047;SDS011;56119;50.118;8.642;2023-07-02T13:48:53;16.17;;;10.43;;
69047;SDS011;56119;50.118;8.642;2023-07-02T13:51:19;16.17;;;10.75;;
69047;SDS011;56119;50.118;8.642;2023-07-02T13:53:45;21.83;;;13.27;;
69047;SDS011;56119;50.118;8.642;2023-07-02T13:56:11;15.82;;;10.27;;
69047;SDS011;56119;50.118;8.642;2023-07-02T14:01:21;16.33;;;10.93;;
69047;SDS011;56119;50.118;8.642;2023-07-02T14:04:00;20.48;;;11.93;;
69047;SDS011;56119;50.118;8.642;2023-07-02T14:06:26;19.35;;;12.20;;
69047;SDS011;56119;50.118;8.642;2023-07-02T14:14:59;18.05;;;11.63;;
69047;SDS011;56119;50.118;8.642;2023-07-02T14:17:25;17.63;;;11.57;;
69047;SDS011;56119;50.118;8.642;2023-07-02T14:25:59;16.65;;;11.50;;
69047;SDS011;56119;50.118;8.642;2023-07-02T14:28:25;17.45;;;11.55;;
69047;SDS011;56119;50.118;8.642;2023-07-02T14:31:00;20.23;;;11.82;;
69047;SDS011;56119;50.118;8.642;2023-07-02T14:42:22;16.73;;;11.15;;
69047;SDS011;56119;50.118;8.642;2023-07-02T14:44:48;15.15;;;11.45;;
69047;SDS011;56119;50.118;8.642;2023-07-02T14:47:14;15.70;;;11.23;;
69047;SDS011;56119;50.118;8.642;2023-07-02T14:49:39;15.75;;;10.95;;
69047;SDS011;56119;50.118;8.642;2023-07-02T14:52:06;18.27;;;12.20;;
69047;SDS011;56119;50.118;8.642;2023-07-02T14:54:32;16.60;;;11.85;;
69047;SDS011;56119;50.118;8.642;2023-07-02T14:56:58;19.17;;;12.43;;
69047;SDS011;56119;50.118;8.642;2023-07-02T14:59:24;16.70;;;12.25;;
69047;SDS011;56119;50.118;8.642;2023-07-02T15:01:50;16.23;;;11.68;;
69047;SDS011;56119;50.118;8.642;2023-07-02T15:04:16;17.27;;;12.65;;
69047;SDS011;56119;50.118;8.642;2023-07-02T15:12:59;17.85;;;12.00;;
69047;SDS011;56119;50.118;8.642;2023-07-02T15:18:38;17.58;;;11.25;;
69047;SDS011;56119;50.118;8.642;2023-07-02T15:21:04;18.70;;;11.80;;
69047;SDS011;56119;50.118;8.642;2023-07-02T15:23:30;14.90;;;10.70;;
69047;SDS011;56119;50.118;8.642;2023-07-02T15:25:58;14.18;;;10.27;;
69047;SDS011;56119;50.118;8.642;2023-07-02T15:28:25;17.73;;;11.32;;
69047;SDS011;56119;50.118;8.642;2023-07-02T15:30:54;18.58;;;11.02;;
69047;SDS011;56119;50.118;8.642;2023-07-02T15:33:21;18.98;;;11.40;;
69047;SDS011;56119;50.118;8.642;2023-07-02T15:35:47;20.73;;;12.13;;
69047;SDS011;56119;50.118;8.642;2023-07-02T15:38:14;17.58;;;10.88;;
69047;SDS011;56119;50.118;8.642;2023-07-02T15:40:40;17.67;;;11.38;;
69047;SDS011;56119;50.118;8.642;2023-07-02T15:43:06;16.90;;;11.52;;
69047;SDS011;56119;50.118;8.642;2023-07-02T15:45:32;17.15;;;11.73;;
69047;SDS011;56119;50.118;8.642;2023-07-02T15:47:58;18.08;;;11.70;;
69047;SDS011;56119;50.118;8.642;2023-07-02T15:50:24;18.88;;;12.38;;
69047;SDS011;56119;50.118;8.642;2023-07-02T15:52:50;20.42;;;12.13;;
69047;SDS011;56119;50.118;8.642;2023-07-02T15:55:17;20.98;;;12.98;;
69047;SDS011;56119;50.118;8.642;2023-07-02T15:57:43;16.42;;;10.48;;
69047;SDS011;56119;50.118;8.642;2023-07-02T16:00:09;18.73;;;11.95;;
69047;SDS011;56119;50.118;8.642;2023-07-02T16:02:36;16.60;;;11.90;;
69047;SDS011;56119;50.118;8.642;2023-07-02T16:05:02;14.48;;;10.45;;
69047;SDS011;56119;50.118;8.642;2023-07-02T16:07:28;17.17;;;10.52;;
69047;SDS011;56119;50.118;8.642;2023-07-02T16:09:54;16.75;;;11.02;;
69047;SDS011;56119;50.118;8.642;2023-07-02T16:12:20;17.48;;;10.93;;
69047;SDS011;56119;50.118;8.642;2023-07-02T16:14:46;16.42;;;10.98;;
69047;SDS011;56119;50.118;8.642;2023-07-02T16:17:12;16.25;;;11.15;;
69047;SDS011;56119;50.118;8.642;2023-07-02T16:19:38;15.88;;;11.05;;
69047;SDS011;56119;50.118;8.642;2023-07-02T16:22:04;18.65;;;11.82;;
69047;SDS011;56119;50.118;8.642;2023-07-02T16:24:31;20.40;;;10.88;;
69047;SDS011;56119;50.118;8.642;2023-07-02T16:26:57;19.73;;;12.30;;
69047;SDS011;56119;50.118;8.642;2023-07-02T16:29:24;19.02;;;11.18;;
69047;SDS011;56119;50.118;8.642;2023-07-02T16:31:52;18.35;;;10.77;;
69047;SDS011;56119;50.118;8.642;2023-07-02T16:34:19;18.92;;;11.15;;
69047;SDS011;56119;50.118;8.642;2023-07-02T16:36:45;18.55;;;12.10;;
69047;SDS011;56119;50.118;8.642;2023-07-02T16:39:11;18.52;;;11.73;;
69047;SDS011;56119;50.118;8.642;2023-07-02T16:41:38;16.90;;;11.23;;
69047;SDS011;56119;50.118;8.642;2023-07-02T16:44:14;15.52;;;10.35;;